createdAt,value
2017-08-27T00:01:46.748Z,17.83
2017-08-27T00:04:15.223Z,17.40
2017-08-27T00:06:44.341Z,16.37
2017-08-27T00:09:12.637Z,17.13
2017-08-27T00:11:40.924Z,17.37
2017-08-27T00:14:09.208Z,18.70
2017-08-27T00:16:37.564Z,16.33
2017-08-27T00:19:05.857Z,18.50
2017-08-27T00:21:34.149Z,18.20
2017-08-27T00:24:02.514Z,19.53
2017-08-27T00:26:30.821Z,18.60
2017-08-27T00:28:59.090Z,19.30
2017-08-27T00:31:27.455Z,21.80
2017-08-27T00:33:55.760Z,18.40
2017-08-27T00:36:24.043Z,19.47
2017-08-27T00:38:52.333Z,19.03
2017-08-27T00:41:20.615Z,18.50
2017-08-27T00:43:48.905Z,19.60
2017-08-27T00:46:17.176Z,19.33
2017-08-27T00:48:45.467Z,20.70
2017-08-27T00:51:13.750Z,20.23
2017-08-27T00:53:42.015Z,20.27
2017-08-27T00:56:10.305Z,20.90
2017-08-27T00:58:38.563Z,20.97
2017-08-27T01:01:06.971Z,20.50
2017-08-27T01:03:35.259Z,19.03
2017-08-27T01:06:03.633Z,21.00
2017-08-27T01:08:32.016Z,20.70
2017-08-27T01:11:00.385Z,20.50
2017-08-27T01:13:28.657Z,20.50
2017-08-27T01:15:57.060Z,20.07
2017-08-27T01:18:25.417Z,18.40
2017-08-27T01:20:53.797Z,18.20
2017-08-27T01:23:22.100Z,19.07
2017-08-27T01:25:50.467Z,18.90
2017-08-27T01:28:18.833Z,17.40
2017-08-27T01:30:47.214Z,17.40
2017-08-27T01:33:15.597Z,16.70
2017-08-27T01:35:43.969Z,16.37
2017-08-27T01:38:12.229Z,16.23
2017-08-27T01:40:40.516Z,14.80
2017-08-27T01:43:08.898Z,16.33
2017-08-27T01:45:37.190Z,15.97
2017-08-27T01:48:05.457Z,16.33
2017-08-27T01:50:33.826Z,15.80
2017-08-27T01:53:02.194Z,16.03
2017-08-27T01:55:30.486Z,14.83
2017-08-27T01:57:58.771Z,14.93
2017-08-27T02:00:27.132Z,15.77
2017-08-27T02:02:55.518Z,14.93
2017-08-27T02:05:23.897Z,15.37
2017-08-27T02:07:52.191Z,15.67
2017-08-27T02:10:20.464Z,17.17
2017-08-27T02:12:48.821Z,17.13
2017-08-27T02:15:17.112Z,16.30
2017-08-27T02:17:45.483Z,16.33
2017-08-27T02:20:13.763Z,16.50
2017-08-27T02:22:42.041Z,17.57
2017-08-27T02:25:10.326Z,16.00
2017-08-27T02:27:38.606Z,17.53
2017-08-27T02:30:06.965Z,15.33
2017-08-27T02:32:35.256Z,15.50
2017-08-27T02:35:03.622Z,16.87
2017-08-27T02:37:32.031Z,15.00
2017-08-27T02:40:00.327Z,15.20
2017-08-27T02:42:28.661Z,14.73
2017-08-27T02:44:56.963Z,15.57
2017-08-27T02:47:25.322Z,17.07
2017-08-27T02:49:53.619Z,17.90
2017-08-27T02:52:22.003Z,15.97
2017-08-27T02:54:50.283Z,16.90
2017-08-27T02:57:18.661Z,17.37
2017-08-27T02:59:46.929Z,17.00
2017-08-27T03:02:15.207Z,16.27
2017-08-27T03:04:43.485Z,16.23
2017-08-27T03:07:11.785Z,16.37
2017-08-27T03:09:40.053Z,17.70
2017-08-27T03:12:08.351Z,17.73
2017-08-27T03:14:37.414Z,17.27
2017-08-27T03:17:05.784Z,19.57
2017-08-27T03:19:34.182Z,20.80
2017-08-27T03:22:02.463Z,18.03
2017-08-27T03:24:31.555Z,18.50
2017-08-27T03:26:59.812Z,19.00
2017-08-27T03:29:28.097Z,19.57
2017-08-27T03:31:56.371Z,20.23
2017-08-27T03:34:24.687Z,21.10
2017-08-27T03:36:53.740Z,19.10
2017-08-27T03:39:22.029Z,20.47
2017-08-27T03:41:50.310Z,20.80
2017-08-27T03:44:18.687Z,20.33
2017-08-27T03:46:47.074Z,21.47
2017-08-27T03:49:15.455Z,21.20
2017-08-27T03:51:43.741Z,20.13
2017-08-27T03:54:12.088Z,21.70
2017-08-27T03:56:40.487Z,21.50
2017-08-27T03:59:08.873Z,22.33
2017-08-27T04:01:37.165Z,21.83
2017-08-27T04:04:06.330Z,24.50
2017-08-27T04:06:34.712Z,23.10
2017-08-27T04:09:03.002Z,24.60
2017-08-27T04:11:31.374Z,23.83
2017-08-27T04:13:59.673Z,24.63
2017-08-27T04:16:28.012Z,27.17
2017-08-27T04:18:56.426Z,25.27
2017-08-27T04:21:24.771Z,25.03
2017-08-27T04:23:53.054Z,26.00
2017-08-27T04:26:21.354Z,25.67
2017-08-27T04:28:49.624Z,26.70
2017-08-27T04:31:17.917Z,27.60
2017-08-27T04:33:46.198Z,26.63
2017-08-27T04:36:15.272Z,25.00
2017-08-27T04:38:43.648Z,23.77
2017-08-27T04:41:11.993Z,24.80
2017-08-27T04:43:41.047Z,26.27
2017-08-27T04:46:10.851Z,25.90
2017-08-27T04:48:39.181Z,24.57
2017-08-27T04:51:07.562Z,23.13
2017-08-27T04:53:36.733Z,25.77
2017-08-27T04:56:05.815Z,24.17
2017-08-27T04:58:34.210Z,25.50
2017-08-27T05:01:02.599Z,26.70
2017-08-27T05:03:30.903Z,25.27
2017-08-27T05:05:59.244Z,27.50
2017-08-27T05:08:27.521Z,25.93
2017-08-27T05:10:55.819Z,28.83
2017-08-27T05:13:24.097Z,29.90
2017-08-27T05:15:52.389Z,29.90
2017-08-27T05:18:20.731Z,28.87
2017-08-27T05:20:49.107Z,27.17
2017-08-27T05:23:17.481Z,26.23
2017-08-27T05:25:45.879Z,25.53
2017-08-27T05:28:14.234Z,24.77
2017-08-27T05:30:42.509Z,21.80
2017-08-27T05:33:10.795Z,20.43
2017-08-27T05:35:39.070Z,20.43
2017-08-27T05:38:07.367Z,21.13
2017-08-27T05:40:35.635Z,19.20
2017-08-27T05:43:03.958Z,18.00
2017-08-27T05:45:32.249Z,21.27
2017-08-27T05:48:00.548Z,18.60
2017-08-27T05:50:29.604Z,18.80
2017-08-27T05:52:57.933Z,16.37
2017-08-27T05:55:26.215Z,18.30
2017-08-27T05:57:54.647Z,16.10
2017-08-27T06:00:22.950Z,17.60
2017-08-27T06:02:51.204Z,18.13
2017-08-27T06:05:19.504Z,16.57
2017-08-27T06:07:48.578Z,17.47
2017-08-27T06:10:16.855Z,17.50
2017-08-27T06:12:45.235Z,15.80
2017-08-27T06:15:13.517Z,17.10
2017-08-27T06:17:41.814Z,17.27
2017-08-27T06:20:10.127Z,16.60
2017-08-27T06:22:38.436Z,17.00
2017-08-27T06:25:06.721Z,16.73
2017-08-27T06:27:35.001Z,17.07
2017-08-27T06:30:03.291Z,17.20
2017-08-27T06:32:31.753Z,16.27
2017-08-27T06:35:00.026Z,16.30
2017-08-27T06:37:28.390Z,16.60
2017-08-27T06:39:56.695Z,17.33
2017-08-27T06:42:25.023Z,15.00
2017-08-27T06:44:53.361Z,16.63
2017-08-27T06:47:21.652Z,16.30
2017-08-27T06:49:49.986Z,18.07
2017-08-27T06:52:18.252Z,16.17
2017-08-27T06:54:46.802Z,17.10
2017-08-27T06:57:15.153Z,16.40
2017-08-27T06:59:43.433Z,16.00
2017-08-27T07:02:12.510Z,17.63
2017-08-27T07:04:40.887Z,16.43
2017-08-27T07:07:09.168Z,16.00
2017-08-27T07:09:37.491Z,14.97
2017-08-27T07:12:05.769Z,16.63
2017-08-27T07:14:34.106Z,16.20
2017-08-27T07:17:02.387Z,15.70
2017-08-27T07:19:30.663Z,14.93
2017-08-27T07:21:58.959Z,14.77
2017-08-27T07:24:27.316Z,14.20
2017-08-27T07:26:55.580Z,14.77
2017-08-27T07:29:23.963Z,13.90
2017-08-27T07:31:52.240Z,12.60
2017-08-27T07:34:20.532Z,13.70
2017-08-27T07:36:48.912Z,13.43
2017-08-27T07:39:17.186Z,14.20
2017-08-27T07:41:45.549Z,12.00
2017-08-27T07:44:13.867Z,13.00
2017-08-27T07:46:42.223Z,12.83
2017-08-27T07:49:10.509Z,11.53
2017-08-27T07:51:38.768Z,12.10
2017-08-27T07:54:07.059Z,12.57
2017-08-27T07:56:35.341Z,11.10
2017-08-27T07:59:03.640Z,10.83
2017-08-27T08:01:31.915Z,11.07
2017-08-27T08:04:00.351Z,10.87
2017-08-27T08:06:28.624Z,10.53
2017-08-27T08:08:57.018Z,11.90
2017-08-27T08:11:25.383Z,10.53
2017-08-27T08:13:53.659Z,9.87
2017-08-27T08:16:21.946Z,9.23
2017-08-27T08:18:50.420Z,10.60
2017-08-27T08:21:18.708Z,10.03
2017-08-27T08:23:47.078Z,10.40
2017-08-27T08:26:15.398Z,8.87
2017-08-27T08:28:43.683Z,10.27
2017-08-27T08:31:11.970Z,9.20
2017-08-27T08:33:40.252Z,8.97
2017-08-27T08:36:08.520Z,8.37
2017-08-27T08:38:36.801Z,8.40
2017-08-27T08:41:05.131Z,7.83
2017-08-27T08:43:33.501Z,9.67
2017-08-27T08:46:01.772Z,8.60
2017-08-27T08:48:30.153Z,9.33
2017-08-27T08:50:58.529Z,7.70
2017-08-27T08:53:26.830Z,9.00
2017-08-27T08:55:55.097Z,8.70
2017-08-27T08:58:23.362Z,8.00
2017-08-27T09:00:51.716Z,9.23
2017-08-27T09:03:20.127Z,7.57
2017-08-27T09:05:48.406Z,8.30
2017-08-27T09:08:16.681Z,7.03
2017-08-27T09:10:44.958Z,6.67
2017-08-27T09:13:13.215Z,8.03
2017-08-27T09:15:41.507Z,7.60
2017-08-27T09:18:09.787Z,7.77
2017-08-27T09:20:38.173Z,7.53
2017-08-27T09:23:06.448Z,7.33
2017-08-27T09:25:34.826Z,6.90
2017-08-27T09:28:03.068Z,8.00
2017-08-27T09:30:31.351Z,7.03
2017-08-27T09:32:59.629Z,5.60
2017-08-27T09:35:27.903Z,6.50
2017-08-27T09:37:56.185Z,7.37
2017-08-27T09:40:25.298Z,6.63
2017-08-27T09:42:53.582Z,7.10
2017-08-27T09:45:21.845Z,6.70
2017-08-27T09:47:50.233Z,7.57
2017-08-27T09:50:18.505Z,6.83
2017-08-27T09:52:46.889Z,7.07
2017-08-27T09:55:15.152Z,6.03
2017-08-27T09:57:43.461Z,6.27
2017-08-27T10:00:11.741Z,6.77
2017-08-27T10:02:39.998Z,7.27
2017-08-27T10:05:08.378Z,6.50
2017-08-27T10:07:36.758Z,6.23
2017-08-27T10:10:05.138Z,7.30
2017-08-27T10:12:33.391Z,6.13
2017-08-27T10:15:01.693Z,7.57
2017-08-27T10:17:29.964Z,6.80
2017-08-27T10:19:58.256Z,6.10
2017-08-27T10:22:26.521Z,6.20
2017-08-27T10:24:54.798Z,5.40
2017-08-27T10:27:23.178Z,5.60
2017-08-27T10:29:51.555Z,5.97
2017-08-27T10:32:19.938Z,5.23
2017-08-27T10:34:48.193Z,5.10
2017-08-27T10:37:16.504Z,4.80
2017-08-27T10:39:44.878Z,4.50
2017-08-27T10:42:13.209Z,4.60
2017-08-27T10:44:41.469Z,3.77
2017-08-27T10:47:09.741Z,4.03
2017-08-27T10:49:38.095Z,3.97
2017-08-27T10:52:06.363Z,4.60
2017-08-27T10:54:34.641Z,4.70
2017-08-27T10:57:03.024Z,4.60
2017-08-27T10:59:31.439Z,4.93
2017-08-27T11:02:00.489Z,5.43
2017-08-27T11:04:28.762Z,5.00
2017-08-27T11:06:57.021Z,4.37
2017-08-27T11:09:25.330Z,3.53
2017-08-27T11:11:53.623Z,4.40
2017-08-27T11:14:21.988Z,4.27
2017-08-27T11:16:50.340Z,3.80
2017-08-27T11:19:18.602Z,4.57
2017-08-27T11:21:46.995Z,5.20
2017-08-27T11:24:15.275Z,4.47
2017-08-27T11:26:43.539Z,5.30
2017-08-27T11:29:11.841Z,4.50
2017-08-27T11:31:40.100Z,4.33
2017-08-27T11:34:08.503Z,4.00
2017-08-27T11:36:36.801Z,3.73
2017-08-27T11:39:05.167Z,4.13
2017-08-27T11:41:33.438Z,3.60
2017-08-27T11:44:01.723Z,3.00
2017-08-27T11:46:29.976Z,3.30
2017-08-27T11:48:58.276Z,3.50
2017-08-27T11:51:26.546Z,3.83
2017-08-27T11:53:54.926Z,2.97
2017-08-27T11:56:23.215Z,3.87
2017-08-27T11:58:51.562Z,3.27
2017-08-27T12:01:20.057Z,3.23
2017-08-27T12:03:48.330Z,3.30
2017-08-27T12:06:16.724Z,2.77
2017-08-27T12:08:44.986Z,2.73
2017-08-27T12:11:13.281Z,2.70
2017-08-27T12:13:41.644Z,2.97
2017-08-27T12:16:09.921Z,2.33
2017-08-27T12:18:38.201Z,2.10
2017-08-27T12:21:06.458Z,2.37
2017-08-27T12:23:34.751Z,3.10
2017-08-27T12:26:03.007Z,2.40
2017-08-27T12:28:31.319Z,2.50
2017-08-27T12:30:59.608Z,3.00
2017-08-27T12:33:27.859Z,2.67
2017-08-27T12:35:56.134Z,2.57
2017-08-27T12:38:24.540Z,2.53
2017-08-27T12:40:52.808Z,2.60
2017-08-27T12:43:21.170Z,2.80
2017-08-27T12:45:49.450Z,1.93
2017-08-27T12:48:17.730Z,2.40
2017-08-27T12:50:46.014Z,2.23
2017-08-27T12:53:14.304Z,2.10
2017-08-27T12:55:42.652Z,1.93
2017-08-27T12:58:10.942Z,2.43
2017-08-27T13:00:39.325Z,2.30
2017-08-27T13:03:07.591Z,2.50
2017-08-27T13:05:35.957Z,2.40
2017-08-27T13:08:04.219Z,2.20
2017-08-27T13:10:32.506Z,2.30
2017-08-27T13:13:00.801Z,2.50
2017-08-27T13:15:29.168Z,2.30
2017-08-27T13:17:57.479Z,2.73
2017-08-27T13:20:25.719Z,2.80
2017-08-27T13:22:54.009Z,2.40
2017-08-27T13:25:22.264Z,2.20
2017-08-27T13:27:50.585Z,1.80
2017-08-27T13:30:18.865Z,1.53
2017-08-27T13:32:47.157Z,2.47
2017-08-27T13:35:16.221Z,2.33
2017-08-27T13:37:44.595Z,2.00
2017-08-27T13:40:12.881Z,2.00
2017-08-27T13:42:41.245Z,2.93
2017-08-27T13:45:09.525Z,2.10
2017-08-27T13:47:37.835Z,1.80
2017-08-27T13:50:06.116Z,1.80
2017-08-27T13:52:34.365Z,1.73
2017-08-27T13:55:02.715Z,1.73
2017-08-27T13:57:31.018Z,1.90
2017-08-27T13:59:59.305Z,1.97
2017-08-27T14:02:27.556Z,1.80
2017-08-27T14:04:56.054Z,1.70
2017-08-27T14:07:24.350Z,1.93
2017-08-27T14:09:52.697Z,2.20
2017-08-27T14:12:20.978Z,1.60
2017-08-27T14:14:49.275Z,2.00
2017-08-27T14:17:17.545Z,1.70
2017-08-27T14:19:45.831Z,1.70
2017-08-27T14:22:14.120Z,1.77
2017-08-27T14:24:42.391Z,1.63
2017-08-27T14:27:10.772Z,1.90
2017-08-27T14:29:39.218Z,2.10
2017-08-27T14:32:07.520Z,1.80
2017-08-27T14:34:35.802Z,1.53
2017-08-27T14:37:05.174Z,2.20
2017-08-27T14:39:33.466Z,1.40
2017-08-27T14:42:01.737Z,1.90
2017-08-27T14:44:30.027Z,1.70
2017-08-27T14:46:58.286Z,1.53
2017-08-27T14:49:26.651Z,1.80
2017-08-27T14:51:54.910Z,1.50
2017-08-27T14:54:23.236Z,1.80
2017-08-27T14:56:51.493Z,2.10
2017-08-27T14:59:19.852Z,1.47
2017-08-27T15:01:48.141Z,1.63
2017-08-27T15:04:16.430Z,1.50
2017-08-27T15:06:44.901Z,1.70
2017-08-27T15:09:13.181Z,1.60
2017-08-27T15:11:41.456Z,1.63
2017-08-27T15:14:09.733Z,1.70
2017-08-27T15:16:38.105Z,1.63
2017-08-27T15:19:06.387Z,1.53
2017-08-27T15:21:34.695Z,1.60
2017-08-27T15:24:03.732Z,1.37
2017-08-27T15:26:32.008Z,1.33
2017-08-27T15:29:00.303Z,1.40
2017-08-27T15:31:28.583Z,1.37
2017-08-27T15:33:56.967Z,1.40
2017-08-27T15:36:25.216Z,1.70
2017-08-27T15:38:53.483Z,1.23
2017-08-27T15:41:21.782Z,1.83
2017-08-27T15:43:50.169Z,1.70
2017-08-27T15:46:18.417Z,1.40
2017-08-27T15:48:46.738Z,1.37
2017-08-27T15:51:15.031Z,1.33
2017-08-27T15:53:43.389Z,1.40
2017-08-27T15:56:11.728Z,1.40
2017-08-27T15:58:40.023Z,1.50
2017-08-27T16:01:08.393Z,1.57
2017-08-27T16:03:36.660Z,1.73
2017-08-27T16:06:05.069Z,1.30
2017-08-27T16:08:33.378Z,1.83
2017-08-27T16:11:01.681Z,1.50
2017-08-27T16:13:29.949Z,1.50
2017-08-27T16:15:58.251Z,1.73
2017-08-27T16:18:26.552Z,1.50
2017-08-27T16:20:54.808Z,1.57
2017-08-27T16:23:23.112Z,1.43
2017-08-27T16:25:51.387Z,1.60
2017-08-27T16:28:19.696Z,2.00
2017-08-27T16:30:47.953Z,1.30
2017-08-27T16:33:16.970Z,1.60
2017-08-27T16:35:45.259Z,1.57
2017-08-27T16:38:13.514Z,1.40
2017-08-27T16:40:41.802Z,1.67
2017-08-27T16:43:10.072Z,1.33
2017-08-27T16:45:38.356Z,1.60
2017-08-27T16:48:06.622Z,1.60
2017-08-27T16:50:34.910Z,1.60
2017-08-27T16:53:03.176Z,1.60
2017-08-27T16:55:31.613Z,1.80
2017-08-27T16:57:59.909Z,1.67
2017-08-27T17:00:28.271Z,1.70
2017-08-27T17:02:56.645Z,1.60
2017-08-27T17:05:24.928Z,1.43
2017-08-27T17:07:53.311Z,1.53
2017-08-27T17:10:21.558Z,2.23
2017-08-27T17:12:49.839Z,1.70
2017-08-27T17:15:18.108Z,1.60
2017-08-27T17:17:46.392Z,1.87
2017-08-27T17:20:14.675Z,1.80
2017-08-27T17:22:42.981Z,1.80
2017-08-27T17:25:11.250Z,1.70
2017-08-27T17:27:39.558Z,1.50
2017-08-27T17:30:07.843Z,1.63
2017-08-27T17:32:36.113Z,2.10
2017-08-27T17:35:05.172Z,2.00
2017-08-27T17:37:33.417Z,1.50
2017-08-27T17:40:01.709Z,2.60
2017-08-27T17:42:29.998Z,1.70
2017-08-27T17:44:58.421Z,2.03
2017-08-27T17:47:26.850Z,2.83
2017-08-27T17:49:55.233Z,1.83
2017-08-27T17:52:23.595Z,2.20
2017-08-27T17:54:51.929Z,1.67
2017-08-27T17:57:20.304Z,1.40
2017-08-27T17:59:48.604Z,1.80
2017-08-27T18:02:16.880Z,1.80
2017-08-27T18:04:45.169Z,1.80
2017-08-27T18:07:13.462Z,2.03
2017-08-27T18:09:42.497Z,1.80
2017-08-27T18:12:10.781Z,1.93
2017-08-27T18:14:39.078Z,2.20
2017-08-27T18:17:08.219Z,2.00
2017-08-27T18:19:36.535Z,2.20
2017-08-27T18:22:04.797Z,2.00
2017-08-27T18:24:33.079Z,2.37
2017-08-27T18:27:01.441Z,2.10
2017-08-27T18:29:29.725Z,2.37
2017-08-27T18:31:58.032Z,2.80
2017-08-27T18:34:26.333Z,2.37
2017-08-27T18:36:54.583Z,2.43
2017-08-27T18:39:23.643Z,2.20
2017-08-27T18:41:51.910Z,2.50
2017-08-27T18:44:20.213Z,2.27
2017-08-27T18:46:48.595Z,2.43
2017-08-27T18:49:16.877Z,2.10
2017-08-27T18:51:45.148Z,2.33
2017-08-27T18:54:13.444Z,2.33
2017-08-27T18:56:42.481Z,2.20
2017-08-27T18:59:10.791Z,2.33
2017-08-27T19:01:39.061Z,2.37
2017-08-27T19:04:07.335Z,2.10
2017-08-27T19:06:35.616Z,1.70
2017-08-27T19:09:03.915Z,2.23
2017-08-27T19:11:32.211Z,1.83
2017-08-27T19:14:00.653Z,2.20
2017-08-27T19:16:28.904Z,1.63
2017-08-27T19:18:57.207Z,1.70
2017-08-27T19:21:25.497Z,1.60
2017-08-27T19:23:53.769Z,2.20
2017-08-27T19:26:22.074Z,1.90
2017-08-27T19:28:50.329Z,1.80
2017-08-27T19:31:18.698Z,1.77
2017-08-27T19:33:46.961Z,1.80
2017-08-27T19:36:15.240Z,2.10
2017-08-27T19:38:43.633Z,2.10
2017-08-27T19:41:11.958Z,1.93
2017-08-27T19:43:40.247Z,1.47
2017-08-27T19:46:08.969Z,2.20
2017-08-27T19:48:37.254Z,2.43
2017-08-27T19:51:05.541Z,2.03
2017-08-27T19:53:33.815Z,2.27
2017-08-27T19:56:02.177Z,2.87
2017-08-27T19:58:30.456Z,3.90
2017-08-27T20:00:58.859Z,3.33
2017-08-27T20:03:27.118Z,3.50
2017-08-27T20:05:55.488Z,3.57
2017-08-27T20:08:23.750Z,2.40
2017-08-27T20:10:52.041Z,4.80
2017-08-27T20:13:20.323Z,2.33
2017-08-27T20:15:48.714Z,2.30
2017-08-27T20:18:16.959Z,3.90
2017-08-27T20:20:45.235Z,2.60
2017-08-27T20:23:13.527Z,2.50
2017-08-27T20:25:41.777Z,2.37
2017-08-27T20:28:10.067Z,2.47
2017-08-27T20:30:38.347Z,14.17
2017-08-27T20:33:07.398Z,3.10
2017-08-27T20:35:36.437Z,2.20
2017-08-27T20:38:04.821Z,2.30
2017-08-27T20:40:33.118Z,2.10
2017-08-27T20:43:01.592Z,2.30
2017-08-27T20:45:29.852Z,2.50
2017-08-27T20:47:58.148Z,1.90
2017-08-27T20:50:26.461Z,2.27
2017-08-27T20:52:54.807Z,1.50
2017-08-27T20:55:23.115Z,1.73
2017-08-27T20:57:52.165Z,2.07
2017-08-27T21:00:20.449Z,4.03
2017-08-27T21:02:48.728Z,2.37
2017-08-27T21:05:17.102Z,3.37
2017-08-27T21:07:45.355Z,2.60
2017-08-27T21:10:13.647Z,2.83
2017-08-27T21:12:41.915Z,2.00
2017-08-27T21:15:10.207Z,2.40
2017-08-27T21:17:38.507Z,2.40
2017-08-27T21:20:06.868Z,2.10
2017-08-27T21:22:35.112Z,1.90
2017-08-27T21:25:03.426Z,1.57
2017-08-27T21:27:31.705Z,2.27
2017-08-27T21:29:59.969Z,2.67
2017-08-27T21:32:28.367Z,2.77
2017-08-27T21:34:56.740Z,1.93
2017-08-27T21:37:25.114Z,1.87
2017-08-27T21:39:53.384Z,1.97
2017-08-27T21:42:21.775Z,1.80
2017-08-27T21:44:50.149Z,2.20
2017-08-27T21:47:18.492Z,2.30
2017-08-27T21:49:46.831Z,2.40
2017-08-27T21:52:15.185Z,2.07
2017-08-27T21:54:43.567Z,1.80
2017-08-27T21:57:11.885Z,1.93
2017-08-27T21:59:40.229Z,2.20
2017-08-27T22:02:08.497Z,3.03
2017-08-27T22:04:36.877Z,2.30
2017-08-27T22:07:06.584Z,2.37
2017-08-27T22:09:35.084Z,2.13
2017-08-27T22:12:03.342Z,2.47
2017-08-27T22:14:31.635Z,2.00
2017-08-27T22:16:59.916Z,2.33
2017-08-27T22:19:28.284Z,2.30
2017-08-27T22:21:56.575Z,3.20
2017-08-27T22:24:24.963Z,2.50
2017-08-27T22:26:53.231Z,2.20
2017-08-27T22:29:21.502Z,1.87
2017-08-27T22:31:49.799Z,1.77
2017-08-27T22:34:18.074Z,2.47
2017-08-27T22:36:46.441Z,2.70
2017-08-27T22:39:14.722Z,2.40
2017-08-27T22:41:43.001Z,2.10
2017-08-27T22:44:11.355Z,2.80
2017-08-27T22:46:39.657Z,2.67
2017-08-27T22:49:07.922Z,2.60
2017-08-27T22:51:36.186Z,2.67
2017-08-27T22:54:04.578Z,2.67
2017-08-27T22:56:32.860Z,2.70
2017-08-27T22:59:01.157Z,2.10
2017-08-27T23:01:29.424Z,3.00
2017-08-27T23:03:57.707Z,2.30
2017-08-27T23:06:25.975Z,2.60
2017-08-27T23:08:54.252Z,2.43
2017-08-27T23:11:22.505Z,2.80
2017-08-27T23:13:50.894Z,2.70
2017-08-27T23:16:19.156Z,3.10
2017-08-27T23:18:47.446Z,2.30
2017-08-27T23:21:15.705Z,2.53
2017-08-27T23:23:43.992Z,2.17
2017-08-27T23:26:12.292Z,2.90
2017-08-27T23:28:40.557Z,3.30
2017-08-27T23:31:08.839Z,2.87
2017-08-27T23:33:37.216Z,2.77
2017-08-27T23:36:05.495Z,2.57
2017-08-27T23:38:33.769Z,3.07
2017-08-27T23:41:03.217Z,3.13
2017-08-27T23:43:31.515Z,3.13
2017-08-27T23:45:59.789Z,2.70
2017-08-27T23:48:28.047Z,3.00
2017-08-27T23:50:56.381Z,3.13
2017-08-27T23:53:24.653Z,3.20
2017-08-27T23:55:52.914Z,3.67
2017-08-27T23:58:21.315Z,3.70
